createdAt,value
2024-03-16T00:00:13.804Z,197.00
2024-03-16T00:00:45.812Z,196.67
2024-03-16T00:01:18.158Z,195.00
2024-03-16T00:01:50.177Z,193.67
2024-03-16T00:02:22.230Z,191.33
2024-03-16T00:02:54.388Z,188.00
2024-03-16T00:03:26.274Z,185.67
2024-03-16T00:03:58.244Z,186.00
2024-03-16T00:04:30.379Z,185.00
2024-03-16T00:05:02.365Z,183.33
2024-03-16T00:05:34.278Z,183.00
2024-03-16T00:06:06.236Z,179.00
2024-03-16T00:06:38.558Z,174.67
2024-03-16T00:07:11.301Z,175.33
2024-03-16T00:07:43.308Z,177.00
2024-03-16T00:08:15.225Z,178.33
2024-03-16T00:08:47.156Z,179.00
2024-03-16T00:09:19.507Z,179.00
2024-03-16T00:09:51.557Z,178.33
2024-03-16T00:10:23.554Z,179.00
2024-03-16T00:10:55.772Z,178.67
2024-03-16T00:11:28.559Z,179.00
2024-03-16T00:12:00.592Z,179.00
2024-03-16T00:12:33.059Z,179.33
2024-03-16T00:13:08.036Z,178.33
2024-03-16T00:13:40.863Z,177.67
2024-03-16T00:14:12.739Z,177.67
2024-03-16T00:14:49.486Z,177.67
2024-03-16T00:15:21.537Z,177.00
2024-03-16T00:15:53.543Z,177.33
2024-03-16T00:16:25.586Z,178.67
2024-03-16T00:16:57.524Z,180.33
2024-03-16T00:17:29.426Z,181.00
2024-03-16T00:18:01.330Z,182.00
2024-03-16T00:18:35.195Z,182.67
2024-03-16T00:19:07.290Z,183.00
2024-03-16T00:19:39.273Z,184.00
2024-03-16T00:20:15.045Z,184.00
2024-03-16T00:20:46.944Z,185.33
2024-03-16T00:21:18.814Z,186.67
2024-03-16T00:21:51.223Z,187.00
2024-03-16T00:22:23.132Z,188.00
2024-03-16T00:22:55.018Z,188.00
2024-03-16T00:23:26.892Z,188.00
2024-03-16T00:23:59.230Z,188.00
2024-03-16T00:24:31.472Z,190.00
2024-03-16T00:25:03.646Z,191.67
2024-03-16T00:25:35.715Z,193.00
2024-03-16T00:26:08.820Z,193.33
2024-03-16T00:26:41.708Z,194.67
2024-03-16T00:27:14.678Z,195.67
2024-03-16T00:27:46.654Z,195.67
2024-03-16T00:28:18.548Z,196.33
2024-03-16T00:28:52.158Z,197.00
2024-03-16T00:29:24.439Z,197.33
2024-03-16T00:29:56.605Z,198.67
2024-03-16T00:30:28.689Z,200.00
2024-03-16T00:31:01.197Z,202.33
2024-03-16T00:31:37.367Z,203.00
2024-03-16T00:32:10.087Z,202.33
2024-03-16T00:32:42.168Z,202.00
2024-03-16T00:33:14.529Z,202.00
2024-03-16T00:33:46.564Z,202.00
2024-03-16T00:34:18.560Z,200.67
2024-03-16T00:34:50.499Z,197.00
2024-03-16T00:35:22.404Z,194.00
2024-03-16T00:35:54.324Z,193.67
2024-03-16T00:36:26.241Z,191.67
2024-03-16T00:36:58.787Z,190.00
2024-03-16T00:37:30.741Z,189.33
2024-03-16T00:38:02.662Z,189.00
2024-03-16T00:38:34.583Z,188.33
2024-03-16T00:39:16.829Z,189.00
2024-03-16T00:39:49.151Z,189.00
2024-03-16T00:40:21.859Z,189.00
2024-03-16T00:40:57.421Z,188.33
2024-03-16T00:41:29.294Z,188.33
2024-03-16T00:42:02.065Z,188.00
2024-03-16T00:42:34.029Z,188.00
2024-03-16T00:43:05.954Z,188.33
2024-03-16T00:43:38.139Z,189.00
2024-03-16T00:44:10.133Z,189.00
2024-03-16T00:44:42.041Z,189.00
2024-03-16T00:45:14.295Z,189.67
2024-03-16T00:45:46.285Z,191.33
2024-03-16T00:46:18.532Z,193.00
2024-03-16T00:46:50.404Z,193.00
2024-03-16T00:47:22.289Z,193.00
2024-03-16T00:47:55.109Z,193.33
2024-03-16T00:48:27.134Z,194.00
2024-03-16T00:48:59.091Z,194.00
2024-03-16T00:49:30.982Z,194.00
2024-03-16T00:50:03.240Z,194.33
2024-03-16T00:50:35.148Z,195.00
2024-03-16T00:51:07.068Z,195.00
2024-03-16T00:51:38.957Z,195.00
2024-03-16T00:52:11.054Z,195.00
2024-03-16T00:52:42.984Z,197.00
2024-03-16T00:53:14.973Z,198.00
2024-03-16T00:53:47.478Z,198.67
2024-03-16T00:54:19.426Z,199.33
2024-03-16T00:54:51.410Z,200.00
2024-03-16T00:55:23.373Z,201.33
2024-03-16T00:55:55.563Z,203.00
2024-03-16T00:56:28.179Z,204.00
2024-03-16T00:57:00.079Z,204.00
2024-03-16T00:57:32.103Z,204.00
2024-03-16T00:58:04.643Z,203.00
2024-03-16T00:58:36.769Z,203.00
2024-03-16T00:59:10.058Z,203.00
2024-03-16T00:59:42.020Z,203.00
2024-03-16T01:00:15.864Z,203.00
2024-03-16T01:00:47.874Z,202.00
2024-03-16T01:01:20.034Z,202.00
2024-03-16T01:01:53.519Z,202.00
2024-03-16T01:02:25.649Z,202.00
2024-03-16T01:02:57.572Z,200.67
2024-03-16T01:03:29.536Z,199.33
2024-03-16T01:04:02.256Z,198.33
2024-03-16T01:04:34.306Z,196.67
2024-03-16T01:05:06.355Z,193.00
2024-03-16T01:05:38.276Z,188.33
2024-03-16T01:06:10.655Z,181.67
2024-03-16T01:06:42.636Z,174.67
2024-03-16T01:07:14.574Z,170.00
2024-03-16T01:07:46.539Z,173.33
2024-03-16T01:08:18.405Z,175.67
2024-03-16T01:08:50.313Z,175.00
2024-03-16T01:09:23.508Z,175.33
2024-03-16T01:09:56.832Z,173.33
2024-03-16T01:10:28.880Z,175.00
2024-03-16T01:11:00.845Z,176.00
2024-03-16T01:11:33.550Z,176.67
2024-03-16T01:12:05.540Z,177.00
2024-03-16T01:12:37.471Z,178.00
2024-03-16T01:13:09.420Z,177.67
2024-03-16T01:13:41.412Z,178.00
2024-03-16T01:14:13.326Z,178.67
2024-03-16T01:14:45.214Z,177.67
2024-03-16T01:15:18.006Z,176.67
2024-03-16T01:15:50.058Z,176.00
2024-03-16T01:16:22.010Z,176.00
2024-03-16T01:16:54.108Z,174.33
2024-03-16T01:17:26.042Z,172.67
2024-03-16T01:17:57.974Z,170.00
2024-03-16T01:18:30.225Z,168.33
2024-03-16T01:19:02.293Z,168.00
2024-03-16T01:19:36.387Z,169.00
2024-03-16T01:20:10.492Z,169.33
2024-03-16T01:20:45.742Z,170.00
2024-03-16T01:21:17.690Z,170.00
2024-03-16T01:21:49.620Z,170.67
2024-03-16T01:22:23.173Z,171.00
2024-03-16T01:22:55.084Z,171.67
2024-03-16T01:23:26.956Z,172.00
2024-03-16T01:23:58.816Z,172.00
2024-03-16T01:24:30.716Z,172.00
2024-03-16T01:25:03.135Z,172.00
2024-03-16T01:25:35.135Z,172.00
2024-03-16T01:26:08.359Z,171.67
2024-03-16T01:26:40.332Z,169.33
2024-03-16T01:27:12.449Z,167.67
2024-03-16T01:27:44.365Z,166.00
2024-03-16T01:28:16.330Z,167.00
2024-03-16T01:28:48.430Z,167.00
2024-03-16T01:29:20.308Z,167.67
2024-03-16T01:29:52.366Z,168.00
2024-03-16T01:30:25.628Z,168.00
2024-03-16T01:30:58.393Z,168.00
2024-03-16T01:31:30.801Z,168.00
2024-03-16T01:32:05.562Z,168.33
2024-03-16T01:32:37.484Z,169.67
2024-03-16T01:33:09.411Z,171.00
2024-03-16T01:33:41.325Z,171.00
2024-03-16T01:34:13.348Z,171.00
2024-03-16T01:34:45.256Z,171.67
2024-03-16T01:35:17.205Z,172.00
2024-03-16T01:35:49.664Z,172.67
2024-03-16T01:36:21.581Z,174.00
2024-03-16T01:36:54.198Z,174.00
2024-03-16T01:37:26.112Z,175.00
2024-03-16T01:37:58.245Z,175.00
2024-03-16T01:38:30.250Z,175.00
2024-03-16T01:39:02.146Z,175.00
2024-03-16T01:39:34.330Z,175.00
2024-03-16T01:40:08.074Z,175.00
2024-03-16T01:40:40.065Z,174.00
2024-03-16T01:41:12.069Z,174.00
2024-03-16T01:41:43.992Z,174.00
2024-03-16T01:42:15.928Z,173.33
2024-03-16T01:42:47.887Z,172.33
2024-03-16T01:43:19.928Z,169.33
2024-03-16T01:43:51.885Z,166.33
2024-03-16T01:44:23.841Z,163.67
2024-03-16T01:45:14.735Z,161.33
2024-03-16T01:45:46.952Z,161.00
2024-03-16T01:46:18.985Z,159.67
2024-03-16T01:46:50.868Z,158.00
2024-03-16T01:47:22.875Z,157.67
2024-03-16T01:47:56.253Z,157.00
2024-03-16T01:48:28.317Z,157.00
2024-03-16T01:49:00.660Z,156.00
2024-03-16T01:49:32.552Z,155.67
2024-03-16T01:50:04.566Z,155.00
2024-03-16T01:50:40.097Z,154.67
2024-03-16T01:51:13.455Z,153.00
2024-03-16T01:51:45.445Z,151.00
2024-03-16T01:52:17.367Z,149.00
2024-03-16T01:52:49.442Z,148.67
2024-03-16T01:53:21.371Z,149.00
2024-03-16T01:53:53.290Z,148.00
2024-03-16T01:54:25.190Z,147.33
2024-03-16T01:54:57.220Z,146.33
2024-03-16T01:55:29.174Z,146.33
2024-03-16T01:56:01.070Z,143.67
2024-03-16T01:56:33.542Z,142.00
2024-03-16T01:57:05.505Z,142.00
2024-03-16T01:57:38.853Z,141.67
2024-03-16T01:58:10.809Z,141.00
2024-03-16T01:58:46.580Z,140.33
2024-03-16T01:59:18.834Z,140.67
2024-03-16T01:59:50.769Z,137.67
2024-03-16T02:00:22.640Z,136.00
2024-03-16T02:00:54.837Z,136.00
2024-03-16T02:01:27.324Z,137.00
2024-03-16T02:02:01.969Z,137.67
2024-03-16T02:02:35.380Z,137.33
2024-03-16T02:03:07.304Z,137.00
2024-03-16T02:03:40.872Z,136.67
2024-03-16T02:04:12.851Z,132.33
2024-03-16T02:04:44.753Z,131.67
2024-03-16T02:05:16.672Z,131.33
2024-03-16T02:05:48.582Z,130.00
2024-03-16T02:06:20.491Z,128.33
2024-03-16T02:06:52.422Z,128.00
2024-03-16T02:07:24.339Z,126.67
2024-03-16T02:07:56.257Z,126.67
2024-03-16T02:08:28.180Z,126.00
2024-03-16T02:09:01.532Z,127.00
2024-03-16T02:09:33.465Z,127.00
2024-03-16T02:10:06.688Z,127.00
2024-03-16T02:10:38.801Z,127.67
2024-03-16T02:11:10.685Z,128.00
2024-03-16T02:11:42.625Z,128.00
2024-03-16T02:12:14.565Z,128.00
2024-03-16T02:12:46.517Z,128.00
2024-03-16T02:13:18.508Z,128.00
2024-03-16T02:13:50.535Z,128.33
2024-03-16T02:14:22.474Z,127.67
2024-03-16T02:14:54.362Z,126.67
2024-03-16T02:15:26.594Z,126.00
2024-03-16T02:15:58.632Z,124.00
2024-03-16T02:16:30.607Z,121.67
2024-03-16T02:17:02.502Z,119.67
2024-03-16T02:17:34.469Z,115.00
2024-03-16T02:18:06.428Z,109.33
2024-03-16T02:18:38.411Z,109.67
2024-03-16T02:19:10.327Z,112.67
2024-03-16T02:19:42.375Z,114.00
2024-03-16T02:20:17.393Z,114.33
2024-03-16T02:20:49.472Z,115.67
2024-03-16T02:21:21.421Z,116.33
2024-03-16T02:21:53.347Z,119.00
2024-03-16T02:22:25.260Z,120.33
2024-03-16T02:22:57.188Z,121.67
2024-03-16T02:23:32.060Z,122.00
2024-03-16T02:24:03.991Z,122.00
2024-03-16T02:24:36.461Z,122.67
2024-03-16T02:25:09.701Z,124.00
2024-03-16T02:25:41.928Z,124.00
2024-03-16T02:26:13.836Z,124.00
2024-03-16T02:26:47.033Z,124.00
2024-03-16T02:27:21.258Z,125.00
2024-03-16T02:27:53.389Z,125.67
2024-03-16T02:28:25.307Z,125.33
2024-03-16T02:28:57.328Z,126.00
2024-03-16T02:29:29.658Z,125.67
2024-03-16T02:30:01.585Z,124.00
2024-03-16T02:30:33.574Z,122.00
2024-03-16T02:31:06.280Z,122.00
2024-03-16T02:31:38.295Z,122.33
2024-03-16T02:32:10.680Z,123.00
2024-03-16T02:32:42.615Z,123.00
2024-03-16T02:33:15.350Z,123.00
2024-03-16T02:33:47.296Z,123.00
2024-03-16T02:34:19.280Z,123.00
2024-03-16T02:34:52.024Z,123.00
2024-03-16T02:35:24.231Z,123.00
2024-03-16T02:35:56.850Z,123.33
2024-03-16T02:36:28.889Z,123.67
2024-03-16T02:37:01.194Z,124.00
2024-03-16T02:37:33.925Z,123.33
2024-03-16T02:38:05.812Z,122.00
2024-03-16T02:38:37.753Z,122.00
2024-03-16T02:39:12.293Z,122.67
2024-03-16T02:39:44.359Z,123.00
2024-03-16T02:40:16.895Z,124.33
2024-03-16T02:40:48.833Z,126.00
2024-03-16T02:41:20.735Z,127.00
2024-03-16T02:41:57.198Z,126.67
2024-03-16T02:42:29.176Z,127.33
2024-03-16T02:43:01.187Z,128.00
2024-03-16T02:43:33.113Z,128.00
2024-03-16T02:44:06.244Z,125.67
2024-03-16T02:44:38.175Z,121.33
2024-03-16T02:45:10.885Z,117.67
2024-03-16T02:45:42.868Z,119.00
2024-03-16T02:46:14.831Z,120.00
2024-03-16T02:46:46.991Z,121.00
2024-03-16T02:47:19.061Z,122.00
2024-03-16T02:47:50.996Z,122.33
2024-03-16T02:48:22.877Z,123.00
2024-03-16T02:48:54.799Z,123.00
2024-03-16T02:49:29.420Z,123.67
2024-03-16T02:50:05.030Z,124.00
2024-03-16T02:50:37.137Z,124.00
2024-03-16T02:51:09.051Z,124.00
2024-03-16T02:51:41.000Z,124.00
2024-03-16T02:52:14.208Z,124.00
2024-03-16T02:52:46.127Z,123.00
2024-03-16T02:53:18.034Z,122.67
2024-03-16T02:53:51.288Z,122.00
2024-03-16T02:54:23.251Z,121.00
2024-03-16T02:54:55.203Z,121.00
2024-03-16T02:55:27.113Z,122.00
2024-03-16T02:55:59.048Z,123.00
2024-03-16T02:56:31.469Z,125.00
2024-03-16T02:57:03.381Z,126.33
2024-03-16T02:57:35.422Z,127.67
2024-03-16T02:58:07.483Z,129.67
2024-03-16T02:58:40.257Z,132.00
2024-03-16T02:59:12.604Z,133.67
2024-03-16T02:59:44.520Z,133.67
2024-03-16T03:00:18.100Z,134.00
2024-03-16T03:00:50.718Z,134.00
2024-03-16T03:01:22.859Z,134.00
2024-03-16T03:01:56.953Z,134.00
2024-03-16T03:02:29.331Z,134.00
2024-03-16T03:03:01.218Z,134.00
2024-03-16T03:03:33.217Z,134.33
2024-03-16T03:04:06.607Z,134.00
2024-03-16T03:04:38.568Z,134.00
2024-03-16T03:05:13.168Z,134.00
2024-03-16T03:05:45.122Z,135.00
2024-03-16T03:06:16.995Z,135.33
2024-03-16T03:06:48.952Z,136.00
2024-03-16T03:07:20.899Z,136.00
2024-03-16T03:07:53.967Z,136.00
2024-03-16T03:08:26.114Z,135.00
2024-03-16T03:08:58.049Z,135.00
2024-03-16T03:09:30.615Z,135.00
2024-03-16T03:10:02.694Z,135.00
2024-03-16T03:10:34.668Z,135.00
2024-03-16T03:11:06.709Z,135.00
2024-03-16T03:11:39.382Z,135.00
2024-03-16T03:12:11.491Z,135.00
2024-03-16T03:12:43.514Z,135.33
2024-03-16T03:13:15.768Z,136.00
2024-03-16T03:13:50.594Z,136.00
2024-03-16T03:14:22.670Z,136.00
2024-03-16T03:14:54.561Z,136.00
2024-03-16T03:15:26.455Z,136.00
2024-03-16T03:15:58.417Z,136.00
2024-03-16T03:16:30.324Z,136.67
2024-03-16T03:17:02.568Z,137.00
2024-03-16T03:17:34.578Z,136.67
2024-03-16T03:18:07.162Z,136.00
2024-03-16T03:18:39.111Z,135.33
2024-03-16T03:19:11.281Z,134.00
2024-03-16T03:19:44.203Z,132.00
2024-03-16T03:20:16.178Z,131.67
2024-03-16T03:20:48.124Z,131.00
2024-03-16T03:21:20.076Z,131.00
2024-03-16T03:21:52.060Z,130.00
2024-03-16T03:22:24.037Z,130.67
2024-03-16T03:22:55.929Z,130.00
2024-03-16T03:23:29.361Z,130.33
2024-03-16T03:24:01.295Z,130.00
2024-03-16T03:24:33.219Z,128.67
2024-03-16T03:25:05.928Z,126.67
2024-03-16T03:25:39.046Z,125.00
2024-03-16T03:26:11.251Z,124.00
2024-03-16T03:26:43.179Z,122.00
2024-03-16T03:27:15.158Z,120.67
2024-03-16T03:27:47.173Z,118.67
2024-03-16T03:28:19.153Z,117.00
2024-03-16T03:28:51.075Z,115.33
2024-03-16T03:29:22.984Z,113.00
2024-03-16T03:29:54.862Z,112.33
2024-03-16T03:30:26.823Z,112.00
2024-03-16T03:30:58.763Z,111.00
2024-03-16T03:31:30.670Z,109.67
2024-03-16T03:32:02.584Z,107.33
2024-03-16T03:32:34.481Z,107.00
2024-03-16T03:33:06.460Z,108.33
2024-03-16T03:33:39.492Z,109.33
2024-03-16T03:34:11.521Z,110.00
2024-03-16T03:34:43.672Z,110.33
2024-03-16T03:35:15.779Z,111.00
2024-03-16T03:35:47.990Z,111.67
2024-03-16T03:36:20.281Z,112.00
2024-03-16T03:36:52.219Z,112.00
2024-03-16T03:37:24.120Z,112.00
2024-03-16T03:37:56.010Z,112.33
2024-03-16T03:38:27.931Z,113.00
2024-03-16T03:38:59.857Z,113.00
2024-03-16T03:40:04.143Z,113.00
2024-03-16T03:40:36.353Z,112.67
2024-03-16T03:41:09.279Z,113.00
2024-03-16T03:41:41.349Z,113.00
2024-03-16T03:42:13.293Z,113.00
2024-03-16T03:42:49.414Z,113.33
2024-03-16T03:43:23.225Z,114.00
2024-03-16T03:44:10.257Z,114.00
2024-03-16T03:44:51.331Z,113.33
2024-03-16T03:45:28.818Z,113.00
2024-03-16T03:46:00.887Z,113.00
2024-03-16T03:46:51.241Z,113.00
2024-03-16T03:47:31.511Z,113.00
2024-03-16T03:48:26.086Z,113.00
2024-03-16T03:49:13.490Z,113.00
2024-03-16T03:49:52.075Z,113.67
2024-03-16T03:50:30.501Z,114.00
2024-03-16T03:51:02.792Z,114.00
2024-03-16T03:51:34.718Z,113.00
2024-03-16T03:52:06.886Z,114.00
2024-03-16T03:52:38.962Z,114.00
2024-03-16T03:53:10.931Z,114.00
2024-03-16T03:53:42.825Z,115.00
2024-03-16T03:54:14.718Z,118.67
2024-03-16T03:54:46.635Z,131.00
2024-03-16T03:55:19.450Z,142.67
2024-03-16T03:55:51.399Z,149.00
2024-03-16T03:56:23.321Z,149.00
2024-03-16T03:56:55.277Z,149.33
2024-03-16T03:57:27.289Z,150.67
2024-03-16T03:57:59.298Z,146.67
2024-03-16T03:58:31.226Z,145.00
2024-03-16T03:59:03.401Z,143.00
2024-03-16T03:59:35.308Z,142.00
2024-03-16T04:00:09.734Z,140.33
2024-03-16T04:00:44.538Z,140.67
2024-03-16T04:01:16.642Z,140.67
2024-03-16T04:01:48.698Z,141.00
2024-03-16T04:02:20.653Z,140.67
2024-03-16T04:02:52.622Z,140.00
2024-03-16T04:03:24.488Z,139.00
2024-03-16T04:03:57.336Z,139.00
2024-03-16T04:04:29.262Z,139.00
2024-03-16T04:05:01.164Z,139.33
2024-03-16T04:05:33.122Z,139.00
2024-03-16T04:06:05.424Z,139.00
2024-03-16T04:06:37.695Z,138.00
2024-03-16T04:07:10.207Z,137.33
2024-03-16T04:07:43.113Z,135.67
2024-03-16T04:08:15.010Z,134.33
2024-03-16T04:08:47.098Z,133.67
2024-03-16T04:09:19.033Z,132.67
2024-03-16T04:09:51.136Z,130.67
2024-03-16T04:10:23.233Z,129.00
2024-03-16T04:10:55.221Z,129.00
2024-03-16T04:11:27.205Z,129.00
2024-03-16T04:11:59.153Z,128.33
2024-03-16T04:12:31.273Z,126.67
2024-03-16T04:13:03.422Z,125.67
2024-03-16T04:13:35.344Z,124.00
2024-03-16T04:14:08.231Z,124.00
2024-03-16T04:14:40.150Z,124.00
2024-03-16T04:15:12.077Z,124.67
2024-03-16T04:15:44.075Z,124.33
2024-03-16T04:16:16.201Z,123.00
2024-03-16T04:16:49.450Z,123.00
2024-03-16T04:17:21.382Z,122.00
2024-03-16T04:17:53.503Z,122.00
2024-03-16T04:18:25.445Z,119.33
2024-03-16T04:18:57.351Z,116.67
2024-03-16T04:19:29.241Z,116.00
2024-03-16T04:20:01.247Z,115.00
2024-03-16T04:20:33.126Z,114.33
2024-03-16T04:21:08.163Z,113.67
2024-03-16T04:21:40.253Z,112.00
2024-03-16T04:22:14.949Z,109.67
2024-03-16T04:22:47.980Z,107.33
2024-03-16T04:23:19.849Z,106.67
2024-03-16T04:23:51.733Z,106.00
2024-03-16T04:24:23.653Z,103.67
2024-03-16T04:24:55.576Z,101.00
2024-03-16T04:25:27.557Z,101.00
2024-03-16T04:25:59.424Z,101.00
2024-03-16T04:26:31.372Z,101.67
2024-03-16T04:27:03.299Z,103.00
2024-03-16T04:27:35.203Z,102.67
2024-03-16T04:28:07.202Z,100.67
2024-03-16T04:28:39.107Z,99.67
2024-03-16T04:29:11.030Z,98.00
2024-03-16T04:29:42.913Z,98.00
2024-03-16T04:30:14.884Z,99.00
2024-03-16T04:30:46.846Z,99.00
2024-03-16T04:31:18.853Z,98.00
2024-03-16T04:31:50.783Z,98.00
2024-03-16T04:32:27.972Z,97.67
2024-03-16T04:32:59.890Z,95.33
2024-03-16T04:33:31.989Z,94.67
2024-03-16T04:34:04.057Z,93.67
2024-03-16T04:34:37.587Z,93.00
2024-03-16T04:35:09.830Z,93.00
2024-03-16T04:35:41.745Z,93.33
2024-03-16T04:36:14.026Z,91.33
2024-03-16T04:36:46.032Z,91.00
2024-03-16T04:37:18.516Z,91.67
2024-03-16T04:37:50.434Z,92.00
2024-03-16T04:38:22.653Z,92.00
2024-03-16T04:38:54.561Z,92.00
2024-03-16T04:39:26.853Z,92.00
2024-03-16T04:39:59.656Z,91.67
2024-03-16T04:40:32.057Z,90.33
2024-03-16T04:41:03.979Z,88.67
2024-03-16T04:41:35.905Z,89.00
2024-03-16T04:42:07.782Z,88.67
2024-03-16T04:42:39.720Z,86.67
2024-03-16T04:43:11.805Z,86.00
2024-03-16T04:43:46.218Z,85.67
2024-03-16T04:44:18.079Z,84.67
2024-03-16T04:44:49.965Z,81.67
2024-03-16T04:45:21.883Z,80.00
2024-03-16T04:45:53.825Z,80.00
2024-03-16T04:46:26.087Z,80.67
2024-03-16T04:46:58.062Z,81.67
2024-03-16T04:47:30.007Z,82.00
2024-03-16T04:48:01.967Z,82.33
2024-03-16T04:48:33.944Z,83.00
2024-03-16T04:49:06.078Z,83.00
2024-03-16T04:49:38.086Z,83.00
2024-03-16T04:50:12.683Z,83.67
2024-03-16T04:50:45.537Z,84.00
2024-03-16T04:51:18.254Z,85.33
2024-03-16T04:51:50.393Z,86.33
2024-03-16T04:52:22.353Z,88.33
2024-03-16T04:52:54.234Z,90.00
2024-03-16T04:53:26.136Z,92.00
2024-03-16T04:53:58.064Z,92.67
2024-03-16T04:54:29.997Z,93.00
2024-03-16T04:55:01.973Z,92.67
2024-03-16T04:55:34.795Z,93.00
2024-03-16T04:56:06.699Z,93.00
2024-03-16T04:56:38.639Z,93.00
2024-03-16T04:57:10.557Z,93.00
2024-03-16T04:57:42.503Z,93.00
2024-03-16T04:58:14.493Z,92.00
2024-03-16T04:58:46.498Z,92.00
2024-03-16T04:59:18.407Z,92.00
2024-03-16T04:59:50.361Z,91.33
2024-03-16T05:00:22.262Z,91.00
2024-03-16T05:00:54.383Z,91.00
2024-03-16T05:01:26.750Z,90.33
2024-03-16T05:01:58.777Z,90.00
2024-03-16T05:02:31.900Z,90.00
2024-03-16T05:03:03.933Z,89.00
2024-03-16T05:03:35.948Z,88.33
2024-03-16T05:04:09.067Z,88.33
2024-03-16T05:04:41.037Z,88.67
2024-03-16T05:05:12.954Z,88.00
2024-03-16T05:05:45.025Z,88.00
2024-03-16T05:06:16.900Z,87.00
2024-03-16T05:06:48.820Z,87.00
2024-03-16T05:07:20.896Z,87.00
2024-03-16T05:07:52.917Z,86.67
2024-03-16T05:08:24.832Z,86.00
2024-03-16T05:08:56.767Z,84.67
2024-03-16T05:09:28.714Z,83.67
2024-03-16T05:10:00.715Z,83.00
2024-03-16T05:10:32.652Z,83.00
2024-03-16T05:11:04.636Z,83.00
2024-03-16T05:11:39.739Z,83.00
2024-03-16T05:12:11.609Z,83.00
2024-03-16T05:12:43.896Z,83.00
2024-03-16T05:13:15.890Z,82.33
2024-03-16T05:13:47.777Z,82.67
2024-03-16T05:14:19.682Z,83.00
2024-03-16T05:14:51.693Z,83.00
2024-03-16T05:15:23.624Z,83.00
2024-03-16T05:15:55.613Z,83.67
2024-03-16T05:16:27.584Z,84.00
2024-03-16T05:16:59.514Z,84.00
2024-03-16T05:17:32.808Z,84.00
2024-03-16T05:18:05.165Z,84.00
2024-03-16T05:18:37.177Z,84.00
2024-03-16T05:19:09.191Z,84.00
2024-03-16T05:19:41.194Z,84.00
2024-03-16T05:20:13.150Z,84.00
2024-03-16T05:20:45.714Z,84.00
2024-03-16T05:21:17.597Z,84.00
2024-03-16T05:21:49.530Z,84.00
2024-03-16T05:22:21.567Z,84.00
2024-03-16T05:22:53.830Z,84.00
2024-03-16T05:23:25.773Z,84.00
2024-03-16T05:23:57.780Z,85.00
2024-03-16T05:24:29.721Z,85.67
2024-03-16T05:25:01.668Z,86.00
2024-03-16T05:25:33.687Z,87.00
2024-03-16T05:26:05.561Z,87.33
2024-03-16T05:26:37.964Z,88.67
2024-03-16T05:27:11.408Z,90.33
2024-03-16T05:27:44.184Z,92.00
2024-03-16T05:28:17.924Z,92.67
2024-03-16T05:28:50.378Z,93.33
2024-03-16T05:29:22.326Z,94.00
2024-03-16T05:29:54.232Z,94.00
2024-03-16T05:30:26.115Z,94.00
2024-03-16T05:30:58.076Z,94.33
2024-03-16T05:31:30.120Z,94.00
2024-03-16T05:32:02.753Z,93.00
2024-03-16T05:32:34.688Z,91.67
2024-03-16T05:33:06.659Z,90.00
2024-03-16T05:33:38.617Z,88.33
2024-03-16T05:34:10.616Z,87.00
2024-03-16T05:34:42.535Z,87.00
2024-03-16T05:35:14.443Z,87.00
2024-03-16T05:35:46.333Z,86.33
2024-03-16T05:36:18.359Z,85.67
2024-03-16T05:36:50.299Z,85.00
2024-03-16T05:37:22.334Z,85.00
2024-03-16T05:37:54.253Z,84.00
2024-03-16T05:38:26.167Z,84.00
2024-03-16T05:38:58.040Z,83.33
2024-03-16T05:39:30.009Z,81.67
2024-03-16T05:40:02.080Z,81.00
2024-03-16T05:40:34.145Z,80.67
2024-03-16T05:41:06.642Z,80.00
2024-03-16T05:41:38.529Z,80.00
2024-03-16T05:42:12.537Z,80.00
2024-03-16T05:42:44.760Z,80.00
2024-03-16T05:43:16.859Z,80.00
2024-03-16T05:43:48.891Z,79.67
2024-03-16T05:44:20.847Z,79.00
2024-03-16T05:44:52.774Z,79.00
2024-03-16T05:45:24.671Z,79.00
2024-03-16T05:45:56.931Z,79.00
2024-03-16T05:46:28.853Z,79.67
2024-03-16T05:47:00.769Z,79.33
2024-03-16T05:47:32.722Z,80.00
2024-03-16T05:48:04.890Z,79.00
2024-03-16T05:48:36.815Z,79.00
2024-03-16T05:49:08.830Z,79.00
2024-03-16T05:49:41.291Z,79.00
2024-03-16T05:50:13.158Z,79.00
2024-03-16T05:50:45.515Z,80.00
2024-03-16T05:51:18.612Z,80.00
2024-03-16T05:51:51.233Z,80.00
2024-03-16T05:52:23.179Z,80.00
2024-03-16T05:52:55.400Z,80.33
2024-03-16T05:53:27.339Z,81.00
2024-03-16T05:54:00.809Z,81.00
2024-03-16T05:54:35.540Z,81.33
2024-03-16T05:55:07.893Z,82.00
2024-03-16T05:55:40.199Z,82.00
2024-03-16T05:56:14.135Z,82.67
2024-03-16T05:56:46.062Z,83.67
2024-03-16T05:57:18.169Z,84.00
2024-03-16T05:57:50.248Z,84.00
2024-03-16T05:58:23.084Z,85.00
2024-03-16T05:58:54.980Z,85.00
2024-03-16T05:59:26.904Z,85.67
2024-03-16T05:59:58.784Z,86.67
2024-03-16T06:00:30.827Z,87.00
2024-03-16T06:01:05.524Z,87.00
2024-03-16T06:01:38.110Z,88.67
2024-03-16T06:02:10.274Z,89.67
2024-03-16T06:02:42.240Z,90.67
2024-03-16T06:03:14.153Z,92.00
2024-03-16T06:03:46.093Z,92.67
2024-03-16T06:04:21.055Z,94.00
2024-03-16T06:04:53.110Z,97.00
2024-03-16T06:05:25.029Z,97.00
2024-03-16T06:05:56.962Z,98.00
2024-03-16T06:06:28.924Z,98.00
2024-03-16T06:07:00.975Z,98.67
2024-03-16T06:07:33.000Z,100.00
2024-03-16T06:08:06.298Z,101.33
2024-03-16T06:08:38.243Z,103.67
2024-03-16T06:09:10.154Z,104.00
2024-03-16T06:09:42.101Z,103.33
2024-03-16T06:10:14.153Z,104.00
2024-03-16T06:10:46.156Z,104.00
2024-03-16T06:11:18.113Z,104.00
2024-03-16T06:11:50.039Z,105.00
2024-03-16T06:12:22.210Z,105.00
2024-03-16T06:12:54.118Z,106.00
2024-03-16T06:13:26.198Z,105.67
2024-03-16T06:13:58.114Z,105.00
2024-03-16T06:14:29.990Z,105.00
2024-03-16T06:15:01.909Z,104.33
2024-03-16T06:15:34.093Z,104.00
2024-03-16T06:16:06.724Z,104.00
2024-03-16T06:16:38.893Z,104.00
2024-03-16T06:17:10.799Z,104.00
2024-03-16T06:17:42.748Z,104.00
2024-03-16T06:18:14.968Z,104.00
2024-03-16T06:18:48.846Z,104.33
2024-03-16T06:19:20.907Z,104.33
2024-03-16T06:19:54.976Z,104.67
2024-03-16T06:20:26.894Z,104.33
2024-03-16T06:20:58.784Z,104.00
2024-03-16T06:21:30.710Z,103.00
2024-03-16T06:22:04.237Z,103.33
2024-03-16T06:22:36.299Z,104.00
2024-03-16T06:23:09.646Z,103.33
2024-03-16T06:23:41.622Z,103.00
2024-03-16T06:24:13.889Z,103.00
2024-03-16T06:24:48.413Z,103.00
2024-03-16T06:25:21.552Z,102.67
2024-03-16T06:25:54.830Z,101.67
2024-03-16T06:26:29.398Z,101.00
2024-03-16T06:27:07.248Z,101.00
2024-03-16T06:27:44.742Z,101.00
2024-03-16T06:28:22.935Z,101.00
2024-03-16T06:29:06.525Z,101.00
2024-03-16T06:29:40.182Z,101.00
2024-03-16T06:30:14.182Z,101.00
2024-03-16T06:30:57.568Z,101.00
2024-03-16T06:31:33.126Z,101.00
2024-03-16T06:32:07.977Z,99.67
2024-03-16T06:32:45.777Z,99.00
2024-03-16T06:33:28.213Z,98.00
2024-03-16T06:34:00.385Z,96.00
2024-03-16T06:34:34.613Z,95.00
2024-03-16T06:35:06.786Z,95.00
2024-03-16T06:35:38.994Z,94.00
2024-03-16T06:36:10.983Z,93.00
2024-03-16T06:36:42.949Z,93.00
2024-03-16T06:37:14.924Z,92.33
2024-03-16T06:37:46.904Z,92.00
2024-03-16T06:38:19.822Z,92.00
2024-03-16T06:38:51.703Z,91.67
2024-03-16T06:39:25.116Z,91.00
2024-03-16T06:39:57.095Z,90.33
2024-03-16T06:40:29.045Z,89.33
2024-03-16T06:41:01.025Z,89.00
2024-03-16T06:41:32.913Z,88.67
2024-03-16T06:42:05.316Z,88.00
2024-03-16T06:42:37.230Z,87.67
2024-03-16T06:43:09.300Z,87.00
2024-03-16T06:43:41.254Z,87.00
2024-03-16T06:44:13.149Z,87.00
2024-03-16T06:44:45.616Z,87.00
2024-03-16T06:45:17.618Z,87.00
2024-03-16T06:45:49.510Z,87.00
2024-03-16T06:46:22.937Z,87.00
2024-03-16T06:46:54.869Z,87.67
2024-03-16T06:47:26.847Z,87.33
2024-03-16T06:47:58.855Z,87.00
2024-03-16T06:48:30.852Z,87.00
2024-03-16T06:49:07.574Z,86.67
2024-03-16T06:49:40.093Z,86.33
2024-03-16T06:50:12.224Z,85.00
2024-03-16T06:50:47.142Z,84.00